createdAt,value
2023-02-11T09:13:12.032Z,103194.13
2023-02-11T09:16:04.969Z,103195.91
2023-02-11T09:18:40.408Z,103198.59
2023-02-11T09:21:19.385Z,103196.91
2023-02-11T09:23:57.586Z,103203.72
2023-02-11T09:26:32.573Z,103205.47
2023-02-11T09:29:05.226Z,103204.66
2023-02-11T09:31:35.266Z,103199.59
2023-02-11T09:34:10.377Z,103205.56
2023-02-11T09:37:15.402Z,103205.56
2023-02-11T09:40:01.230Z,103206.53
2023-02-11T09:43:23.840Z,103214.34
2023-02-11T09:46:22.071Z,103213.53
2023-02-11T09:48:55.411Z,103204.06
2023-02-11T09:56:13.856Z,103223.28
2023-02-11T09:58:43.915Z,103219.94
2023-02-11T10:01:26.756Z,103224.34
2023-02-11T10:04:22.003Z,103235.44
2023-02-11T10:07:09.633Z,103248.31
2023-02-11T10:10:04.001Z,103244.00
2023-02-11T10:12:52.959Z,103247.44
2023-02-11T10:16:10.326Z,103249.19
2023-02-11T10:19:00.925Z,103246.78
2023-02-11T10:22:21.863Z,103244.25
2023-02-11T10:25:02.534Z,103251.88
2023-02-11T10:27:35.577Z,103247.59
2023-02-11T10:30:22.305Z,103246.59
2023-02-11T10:32:58.011Z,103249.25
2023-02-11T10:35:25.011Z,103250.13
2023-02-11T10:37:51.828Z,103246.00
2023-02-11T10:40:31.408Z,103250.19
2023-02-11T10:43:07.746Z,103248.53
2023-02-11T10:46:05.073Z,103246.69
2023-02-11T10:49:04.270Z,103255.34
2023-02-11T10:51:34.239Z,103256.00
2023-02-11T10:54:04.237Z,103256.06
2023-02-11T10:56:52.131Z,103256.00
2023-02-11T10:59:22.099Z,103252.50
2023-02-11T11:02:06.012Z,103249.09
2023-02-11T11:04:45.944Z,103249.06
2023-02-11T11:07:29.748Z,103250.69
2023-02-11T11:10:44.193Z,103254.25
2023-02-11T11:13:27.281Z,103247.44
2023-02-11T11:16:12.744Z,103257.78
2023-02-11T11:18:42.262Z,103255.16
2023-02-11T11:21:50.983Z,103256.06
2023-02-11T11:24:39.623Z,103265.47
2023-02-11T11:27:06.973Z,103260.41
2023-02-11T11:29:46.355Z,103259.56
2023-02-11T11:32:23.674Z,103258.69
2023-02-11T11:34:57.203Z,103255.44
2023-02-11T11:37:32.639Z,103253.78
2023-02-11T11:40:08.714Z,103249.47
2023-02-11T11:42:38.842Z,103255.47
2023-02-11T11:45:20.350Z,103254.72
2023-02-11T11:48:06.691Z,103261.75
2023-02-11T11:50:47.804Z,103254.75
2023-02-11T11:53:55.230Z,103248.84
2023-02-11T11:56:26.850Z,103254.09
2023-02-11T11:58:54.488Z,103249.84
2023-02-11T12:01:40.081Z,103245.44
2023-02-11T12:04:25.197Z,103249.69
2023-02-11T12:07:13.990Z,103248.78
2023-02-11T12:10:14.149Z,103248.97
2023-02-11T12:13:37.396Z,103244.53
2023-02-11T12:16:28.962Z,103247.09
2023-02-11T12:19:20.389Z,103240.31
2023-02-11T12:22:13.017Z,103246.44
2023-02-11T12:25:16.398Z,103243.81
2023-02-11T12:28:09.172Z,103252.47
2023-02-11T12:31:12.168Z,103255.00
2023-02-11T12:34:21.236Z,103250.63
2023-02-11T12:37:14.435Z,103241.41
2023-02-11T12:39:49.880Z,103233.66
2023-02-11T12:43:12.826Z,103238.81
2023-02-11T12:46:21.768Z,103232.00
2023-02-11T12:49:20.083Z,103234.78
2023-02-11T12:52:04.748Z,103237.38
2023-02-11T12:55:00.819Z,103234.91
2023-02-11T12:57:37.803Z,103232.41
2023-02-11T13:00:15.615Z,103228.06
2023-02-11T13:03:09.681Z,103223.84
2023-02-11T13:06:05.259Z,103222.16
2023-02-11T13:09:04.786Z,103215.41
2023-02-11T13:16:35.449Z,103215.66
2023-02-11T13:19:07.725Z,103213.88
2023-02-11T13:21:50.305Z,103211.34
2023-02-11T13:24:29.537Z,103207.25
2023-02-11T13:27:34.574Z,103215.84
2023-02-11T13:30:34.785Z,103216.91
2023-02-11T13:33:03.834Z,103211.78
2023-02-11T13:35:34.037Z,103215.41
2023-02-11T13:38:13.193Z,103221.41
2023-02-11T13:40:40.507Z,103226.63
2023-02-11T13:43:22.956Z,103220.59
2023-02-11T13:50:30.224Z,103227.63
2023-02-11T13:53:00.782Z,103224.22
2023-02-11T13:55:28.908Z,103226.06
2023-02-11T13:58:17.666Z,103221.72
2023-02-11T14:00:50.688Z,103227.88
2023-02-11T14:03:57.714Z,103218.41
2023-02-11T14:06:46.730Z,103231.34
2023-02-11T14:14:34.858Z,103222.19
2023-02-11T14:17:07.824Z,103216.28
2023-02-11T14:19:46.156Z,103216.34
2023-02-11T14:22:40.191Z,103212.91
2023-02-11T14:25:22.090Z,103228.47
2023-02-11T14:28:15.588Z,103217.31
2023-02-11T14:31:13.037Z,103216.34
2023-02-11T14:34:15.213Z,103214.59
2023-02-11T14:37:09.806Z,103211.28
2023-02-11T14:39:58.224Z,103216.41
2023-02-11T14:42:28.405Z,103213.97
2023-02-11T14:45:06.620Z,103222.63
2023-02-11T14:47:47.115Z,103225.13
2023-02-11T14:50:29.066Z,103223.50
2023-02-11T14:52:58.921Z,103219.19
2023-02-11T14:55:34.752Z,103217.38
2023-02-11T14:58:18.410Z,103226.03
2023-02-11T15:00:52.952Z,103222.56
2023-02-11T15:03:27.118Z,103231.22
2023-02-11T15:06:05.075Z,103230.44
2023-02-11T15:08:36.295Z,103234.63
2023-02-11T15:11:09.824Z,103230.25
2023-02-11T15:13:36.691Z,103245.75
2023-02-11T15:16:11.044Z,103238.13
2023-02-11T15:18:42.143Z,103231.19
2023-02-11T15:21:10.316Z,103234.63
2023-02-11T15:23:37.663Z,103229.38
2023-02-11T15:26:14.873Z,103227.66
2023-02-11T15:28:52.132Z,103233.63
2023-02-11T15:31:23.511Z,103237.13
2023-02-11T15:33:52.293Z,103243.22
2023-02-11T15:36:28.210Z,103253.41
2023-02-11T15:39:31.607Z,103256.84
2023-02-11T15:42:24.292Z,103250.75
2023-02-11T15:45:14.250Z,103257.66
2023-02-11T15:47:51.530Z,103266.22
2023-02-11T15:50:32.993Z,103263.59
2023-02-11T15:53:06.140Z,103261.00
2023-02-11T15:55:33.461Z,103254.09
2023-02-11T15:58:01.779Z,103250.66
2023-02-11T16:00:36.798Z,103260.94
2023-02-11T16:03:04.623Z,103265.22
2023-02-11T16:05:40.574Z,103260.84
2023-02-11T16:08:26.708Z,103257.38
2023-02-11T16:11:03.160Z,103263.41
2023-02-11T16:13:34.246Z,103266.00
2023-02-11T16:16:04.752Z,103262.50
2023-02-11T16:18:40.335Z,103260.72
2023-02-11T16:21:18.030Z,103267.63
2023-02-11T16:23:56.072Z,103266.75
2023-02-11T16:26:43.009Z,103272.78
2023-02-11T16:29:16.846Z,103273.63
2023-02-11T16:31:47.170Z,103283.91
2023-02-11T16:34:24.881Z,103278.59
2023-02-11T16:36:53.177Z,103288.91
2023-02-11T16:39:24.325Z,103281.09
2023-02-11T16:41:52.066Z,103289.66
2023-02-11T16:44:19.777Z,103287.00
2023-02-11T16:46:47.770Z,103289.56
2023-02-11T16:49:22.128Z,103286.84
2023-02-11T16:51:56.866Z,103288.56
2023-02-11T16:54:24.193Z,103286.84
2023-02-11T16:56:51.327Z,103286.81
2023-02-11T16:59:18.419Z,103291.06
2023-02-11T17:01:46.466Z,103283.31
2023-02-11T17:04:32.288Z,103290.16
2023-02-11T17:07:03.064Z,103281.56
2023-02-11T17:09:36.069Z,103285.75
2023-02-11T17:12:06.703Z,103294.41
2023-02-11T17:14:41.030Z,103299.56
2023-02-11T17:20:43.488Z,103308.16
2023-02-11T17:23:30.370Z,103302.22
2023-02-11T17:25:57.326Z,103313.38
2023-02-11T17:28:24.210Z,103320.28
2023-02-11T17:30:51.114Z,103321.97
2023-02-11T17:33:21.126Z,103319.38
2023-02-11T17:35:48.080Z,103315.94
2023-02-11T17:38:22.362Z,103314.16
2023-02-11T17:41:13.854Z,103314.97
2023-02-11T17:43:40.851Z,103314.09
2023-02-11T17:46:08.864Z,103318.38
2023-02-11T17:48:38.605Z,103311.53
2023-02-11T17:51:17.145Z,103318.44
2023-02-11T17:53:43.859Z,103325.19
2023-02-11T17:56:10.778Z,103329.50
2023-02-11T17:58:37.544Z,103332.06
2023-02-11T18:01:04.755Z,103338.09
2023-02-11T18:03:32.961Z,103336.34
2023-02-11T18:06:05.626Z,103332.75
2023-02-11T18:08:34.661Z,103335.44
2023-02-11T18:11:02.336Z,103342.28
2023-02-11T18:13:29.687Z,103340.53
2023-02-11T18:16:03.581Z,103343.97
2023-02-11T18:18:32.151Z,103347.41
2023-02-11T18:21:01.915Z,103347.44
2023-02-11T18:23:28.993Z,103357.81
2023-02-11T18:25:56.255Z,103354.41
2023-02-11T18:28:23.098Z,103361.31
2023-02-11T18:30:58.527Z,103357.81
2023-02-11T18:33:26.215Z,103358.63
2023-02-11T18:35:53.777Z,103357.81
2023-02-11T18:38:22.226Z,103347.44
2023-02-11T18:40:50.520Z,103353.47
2023-02-11T18:43:18.505Z,103353.47
2023-02-11T18:45:47.979Z,103366.47
2023-02-11T18:48:16.041Z,103365.63
2023-02-11T18:50:44.616Z,103371.75
2023-02-11T18:53:13.358Z,103363.88
2023-02-11T18:55:43.138Z,103369.03
2023-02-11T18:58:10.088Z,103376.06
2023-02-11T19:00:41.539Z,103364.81
2023-02-11T19:03:08.562Z,103369.94
2023-02-11T19:05:43.534Z,103376.78
2023-02-11T19:08:11.097Z,103382.88
2023-02-11T19:10:44.371Z,103384.56
2023-02-11T19:13:12.122Z,103377.72
2023-02-11T19:15:46.204Z,103386.34
2023-02-11T19:18:15.474Z,103379.38
2023-02-11T19:20:43.879Z,103386.28
2023-02-11T19:23:11.498Z,103387.94
2023-02-11T19:25:45.302Z,103390.50
2023-02-11T19:28:13.370Z,103391.34
2023-02-11T19:30:40.683Z,103389.56
2023-02-11T19:33:10.120Z,103389.69
2023-02-11T19:35:37.626Z,103384.44
2023-02-11T19:38:06.144Z,103388.84
2023-02-11T19:40:33.119Z,103390.53
2023-02-11T19:43:00.326Z,103397.34
2023-02-11T19:45:27.294Z,103399.06
2023-02-11T19:47:57.856Z,103392.16
2023-02-11T19:50:28.780Z,103404.16
2023-02-11T19:52:55.691Z,103409.38
2023-02-11T19:55:22.642Z,103410.22
2023-02-11T19:57:49.532Z,103412.81
2023-02-11T20:00:16.920Z,103407.63
2023-02-11T20:02:43.965Z,103406.78
2023-02-11T20:05:11.009Z,103410.16
2023-02-11T20:07:38.365Z,103409.31
2023-02-11T20:10:06.859Z,103415.31
2023-02-11T20:12:33.805Z,103414.44
2023-02-11T20:15:00.704Z,103414.44
2023-02-11T20:17:27.563Z,103413.56
2023-02-11T20:19:54.429Z,103412.69
2023-02-11T20:22:21.237Z,103412.69
2023-02-11T20:24:48.088Z,103410.94
2023-02-11T20:27:14.881Z,103413.50
2023-02-11T20:29:41.606Z,103411.78
2023-02-11T20:32:08.628Z,103424.59
2023-02-11T20:34:35.692Z,103424.59
2023-02-11T20:37:02.678Z,103428.94
2023-02-11T20:39:29.569Z,103430.66
2023-02-11T20:41:57.612Z,103421.16
2023-02-11T20:44:24.552Z,103422.03
2023-02-11T20:46:54.211Z,103421.19
2023-02-11T20:49:24.412Z,103422.84
2023-02-11T20:51:53.608Z,103428.91
2023-02-11T20:54:23.062Z,103428.88
2023-02-11T20:56:53.608Z,103431.47
2023-02-11T20:59:22.080Z,103440.88
2023-02-11T21:01:55.509Z,103442.63
2023-02-11T21:04:29.903Z,103450.41
2023-02-11T21:07:00.584Z,103456.47
2023-02-11T21:09:31.641Z,103455.63
2023-02-11T21:11:58.955Z,103458.19
2023-02-11T21:14:26.641Z,103458.97
2023-02-11T21:16:53.814Z,103460.69
2023-02-11T21:19:21.259Z,103460.72
2023-02-11T21:21:48.360Z,103454.69
2023-02-11T21:24:15.819Z,103464.13
2023-02-11T21:26:43.031Z,103465.81
2023-02-11T21:29:10.625Z,103462.31
2023-02-11T21:31:37.891Z,103452.88
2023-02-11T21:34:05.631Z,103454.59
2023-02-11T21:36:32.571Z,103457.25
2023-02-11T21:39:00.185Z,103452.94
2023-02-11T21:41:27.398Z,103452.94
2023-02-11T21:43:54.536Z,103464.06
2023-02-11T21:46:22.540Z,103469.28
2023-02-11T21:48:50.139Z,103471.00
2023-02-11T21:51:20.766Z,103477.03
2023-02-11T21:53:48.012Z,103472.72
2023-02-11T21:56:18.003Z,103464.19
2023-02-11T21:58:46.211Z,103475.38
2023-02-11T22:01:18.790Z,103476.19
2023-02-11T22:03:46.461Z,103478.78
2023-02-11T22:06:17.903Z,103477.09
2023-02-11T22:08:44.662Z,103481.41
2023-02-11T22:11:13.400Z,103471.94
2023-02-11T22:13:42.052Z,103473.63
2023-02-11T22:16:16.263Z,103471.88
2023-02-11T22:18:46.940Z,103471.94
2023-02-11T22:21:20.617Z,103470.25
2023-02-11T22:23:47.624Z,103471.09
2023-02-11T22:26:21.557Z,103471.09
2023-02-11T22:28:49.987Z,103470.19
2023-02-11T22:31:24.375Z,103479.59
2023-02-11T22:33:51.423Z,103471.88
2023-02-11T22:36:25.740Z,103471.03
2023-02-11T22:38:53.430Z,103475.38
2023-02-11T22:41:21.546Z,103474.53
2023-02-11T22:43:48.787Z,103472.88
2023-02-11T22:46:18.458Z,103474.63
2023-02-11T22:48:45.878Z,103472.94
2023-02-11T22:51:19.492Z,103478.09
2023-02-11T22:53:55.234Z,103479.81
2023-02-11T22:56:23.352Z,103481.53
2023-02-11T22:58:51.224Z,103476.38
2023-02-11T23:01:18.646Z,103492.75
2023-02-11T23:03:46.274Z,103490.94
2023-02-11T23:06:13.091Z,103483.28
2023-02-11T23:08:41.085Z,103482.44
2023-02-11T23:11:16.586Z,103489.34
2023-02-11T23:13:44.687Z,103492.69
2023-02-11T23:16:16.639Z,103498.75
2023-02-11T23:18:46.135Z,103498.66
2023-02-11T23:21:22.796Z,103500.41
2023-02-11T23:23:55.045Z,103503.03
2023-02-11T23:26:22.092Z,103498.69
2023-02-11T23:28:48.869Z,103508.19
2023-02-11T23:31:28.883Z,103504.75
2023-02-11T23:33:56.183Z,103510.66
2023-02-11T23:36:23.877Z,103508.16
2023-02-11T23:38:51.757Z,103507.31
2023-02-11T23:41:19.626Z,103509.06
2023-02-11T23:43:54.682Z,103509.94
2023-02-11T23:46:23.074Z,103513.41
2023-02-11T23:48:51.219Z,103508.25
2023-02-11T23:51:19.415Z,103510.84
2023-02-11T23:53:46.662Z,103509.97
2023-02-11T23:56:23.464Z,103515.16
2023-02-11T23:58:53.107Z,103516.91
